WXM80 ListenWXM80 Stop

You find our weather info also at:

UK Metoffice

WeatherCloud

Weather Underground

Northeastern Weather Network

AWEKAS

Citizen Weather Observer Program (CWOP)

HAMweather, WeatherForYou, PWS Weather


Weather Underground History page Text

Daily Summary for October 3, 2017 Units:  Both    English   Metric
« Previous Day
Next Day »
Daily Weekly Monthly Yearly Custom
  High: Low: Average:
Temperature: 75.0 °F /  23.9 °C 49.3 °F /  9.6 °C 58.2 °F /  14.6 °C
Dew Point: 59.4 °F /  15.2 °C 46.4 °F /  8 °C 51.4 °F /  10.8 °C
Humidity: 98 % 50 % 80 %
Wind Speed: 4.8 mph /  7.7 km/h - 0.5 mph /  0.8 km/h
Wind Gust: 9.2 mph /  14.8 km/h - -
Wind:- - ESE
Pressure: 30.53 in /  1033.7 hPa 30.38 in /  1028.7 hPa -
Precipitation: 0.00 in /  0 mm    
Historical Graphs
 
 
Tabular Data for October 3, 2017
Time Temperature Dew Point Pressure Wind Wind Speed Wind Gust Humidity Rainfall Rate (Hourly)
00:00 54.1 °F /  12.3 °C 50.0 °F /  10 °C 30.38 in /  1028.7 hPa Calm     86 % 0.00 in /  0 mm
00:06 54.0 °F /  12.2 °C 49.9 °F /  9.9 °C 30.38 in /  1028.7 hPa Calm     86 % 0.00 in /  0 mm
00:11 53.9 °F /  12.2 °C 49.8 °F /  9.9 °C 30.38 in /  1028.7 hPa Calm     86 % 0.00 in /  0 mm
00:16 53.8 °F /  12.1 °C 49.7 °F /  9.8 °C 30.38 in /  1028.7 hPa Calm     86 % 0.00 in /  0 mm
00:21 53.6 °F /  12 °C 49.5 °F /  9.7 °C 30.38 in /  1028.7 hPa Calm     86 % 0.00 in /  0 mm
00:26 53.5 °F /  11.9 °C 49.4 °F /  9.7 °C 30.38 in /  1028.7 hPa Calm     86 % 0.00 in /  0 mm
00:31 53.4 °F /  11.9 °C 49.3 °F /  9.6 °C 30.38 in /  1028.7 hPa Calm     86 % 0.00 in /  0 mm
00:36 53.3 °F /  11.8 °C 49.2 °F /  9.6 °C 30.39 in /  1029 hPa Calm     86 % 0.00 in /  0 mm
00:41 53.2 °F /  11.8 °C 49.1 °F /  9.5 °C 30.39 in /  1029 hPa Calm     86 % 0.00 in /  0 mm
00:46 53.0 °F /  11.7 °C 49.0 °F /  9.4 °C 30.39 in /  1029 hPa Calm     86 % 0.00 in /  0 mm
00:51 52.9 °F /  11.6 °C 48.8 °F /  9.3 °C 30.39 in /  1029 hPa Calm     86 % 0.00 in /  0 mm
00:56 52.8 °F /  11.6 °C 49.0 °F /  9.4 °C 30.39 in /  1029 hPa Calm     87 % 0.00 in /  0 mm
01:01 52.6 °F /  11.4 °C 48.8 °F /  9.3 °C 30.39 in /  1029 hPa Calm     87 % 0.00 in /  0 mm
01:06 52.5 °F /  11.4 °C 48.7 °F /  9.3 °C 30.39 in /  1029 hPa Calm     87 % 0.00 in /  0 mm
01:11 52.4 °F /  11.3 °C 48.6 °F /  9.2 °C 30.39 in /  1029 hPa Calm     87 % 0.00 in /  0 mm
01:16 52.3 °F /  11.3 °C 48.5 °F /  9.2 °C 30.39 in /  1029 hPa Calm     87 % 0.00 in /  0 mm
01:21 52.1 °F /  11.2 °C 48.7 °F /  9.3 °C 30.39 in /  1029 hPa Calm     88 % 0.00 in /  0 mm
01:24 52.1 °F /  11.2 °C 48.7 °F /  9.3 °C 30.38 in /  1028.7 hPa Calm   1.2 mph /  1.9 km/h 88 % 0.00 in /  0 mm
01:29 51.9 °F /  11.1 °C 48.5 °F /  9.2 °C 30.38 in /  1028.7 hPa Calm     88 % 0.00 in /  0 mm
01:34 51.8 °F /  11 °C 48.7 °F /  9.3 °C 30.38 in /  1028.7 hPa Calm     89 % 0.00 in /  0 mm
01:39 51.7 °F /  10.9 °C 48.6 °F /  9.2 °C 30.39 in /  1029 hPa Calm     89 % 0.00 in /  0 mm
01:44 51.6 °F /  10.9 °C 48.5 °F /  9.2 °C 30.39 in /  1029 hPa Calm     89 % 0.00 in /  0 mm
01:49 51.5 °F /  10.8 °C 48.4 °F /  9.1 °C 30.39 in /  1029 hPa Calm     89 % 0.00 in /  0 mm
01:54 51.5 °F /  10.8 °C 48.7 °F /  9.3 °C 30.39 in /  1029 hPa Calm     90 % 0.00 in /  0 mm
01:59 51.4 °F /  10.8 °C 48.6 °F /  9.2 °C 30.39 in /  1029 hPa Calm     90 % 0.00 in /  0 mm
02:04 51.3 °F /  10.7 °C 48.5 °F /  9.2 °C 30.39 in /  1029 hPa Calm     90 % 0.00 in /  0 mm
02:09 51.3 °F /  10.7 °C 48.5 °F /  9.2 °C 30.39 in /  1029 hPa Calm     90 % 0.00 in /  0 mm
02:14 51.2 °F /  10.7 °C 48.7 °F /  9.3 °C 30.39 in /  1029 hPa Calm     91 % 0.00 in /  0 mm
02:20 51.1 °F /  10.6 °C 48.6 °F /  9.2 °C 30.39 in /  1029 hPa Calm     91 % 0.00 in /  0 mm
02:25 51.0 °F /  10.6 °C 48.5 °F /  9.2 °C 30.40 in /  1029.3 hPa Calm     91 % 0.00 in /  0 mm
02:35 50.9 °F /  10.5 °C 48.4 °F /  9.1 °C 30.40 in /  1029.3 hPa Calm     91 % 0.00 in /  0 mm
02:40 50.8 °F /  10.4 °C 48.3 °F /  9.1 °C 30.40 in /  1029.3 hPa Calm     91 % 0.00 in /  0 mm
02:45 50.8 °F /  10.4 °C 48.3 °F /  9.1 °C 30.40 in /  1029.3 hPa Calm     91 % 0.00 in /  0 mm
02:50 50.7 °F /  10.4 °C 48.2 °F /  9 °C 30.40 in /  1029.3 hPa Calm     91 % 0.00 in /  0 mm
02:55 50.6 °F /  10.3 °C 48.1 °F /  8.9 °C 30.40 in /  1029.3 hPa Calm     91 % 0.00 in /  0 mm
03:00 50.6 °F /  10.3 °C 48.1 °F /  8.9 °C 30.40 in /  1029.3 hPa Calm     91 % 0.00 in /  0 mm
03:05 50.5 °F /  10.3 °C 48.0 °F /  8.9 °C 30.40 in /  1029.3 hPa SE 0.1 mph /  0.2 km/h 1.2 mph /  1.9 km/h 91 % 0.00 in /  0 mm
03:15 50.3 °F /  10.2 °C 47.8 °F /  8.8 °C 30.40 in /  1029.3 hPa Calm     91 % 0.00 in /  0 mm
03:20 50.3 °F /  10.2 °C 47.8 °F /  8.8 °C 30.40 in /  1029.3 hPa Calm     91 % 0.00 in /  0 mm
03:25 50.2 °F /  10.1 °C 47.7 °F /  8.7 °C 30.41 in /  1029.7 hPa Calm     91 % 0.00 in /  0 mm
03:30 50.1 °F /  10.1 °C 47.9 °F /  8.8 °C 30.40 in /  1029.3 hPa Calm     92 % 0.00 in /  0 mm
03:36 50.1 °F /  10.1 °C 47.9 °F /  8.8 °C 30.41 in /  1029.7 hPa Calm     92 % 0.00 in /  0 mm
03:41 50.0 °F /  10 °C 47.8 °F /  8.8 °C 30.41 in /  1029.7 hPa Calm     92 % 0.00 in /  0 mm
03:46 50.0 °F /  10 °C 48.1 °F /  8.9 °C 30.41 in /  1029.7 hPa Calm     93 % 0.00 in /  0 mm
03:51 50.0 °F /  10 °C 48.1 °F /  8.9 °C 30.41 in /  1029.7 hPa Calm     93 % 0.00 in /  0 mm
03:56 49.9 °F /  9.9 °C 48.0 °F /  8.9 °C 30.41 in /  1029.7 hPa Calm     93 % 0.00 in /  0 mm
04:01 49.9 °F /  9.9 °C 48.0 °F /  8.9 °C 30.41 in /  1029.7 hPa SE 0.3 mph /  0.5 km/h 1.2 mph /  1.9 km/h 93 % 0.00 in /  0 mm
04:06 49.9 °F /  9.9 °C 48.0 °F /  8.9 °C 30.41 in /  1029.7 hPa Calm   1.0 mph /  1.6 km/h 93 % 0.00 in /  0 mm
04:11 49.8 °F /  9.9 °C 47.9 °F /  8.8 °C 30.41 in /  1029.7 hPa Calm   1.0 mph /  1.6 km/h 93 % 0.00 in /  0 mm
04:16 49.8 °F /  9.9 °C 47.9 °F /  8.8 °C 30.41 in /  1029.7 hPa Calm     93 % 0.00 in /  0 mm
04:21 49.8 °F /  9.9 °C 47.8 °F /  8.8 °C 30.42 in /  1030 hPa Calm     93 % 0.00 in /  0 mm
04:26 49.7 °F /  9.8 °C 47.8 °F /  8.8 °C 30.41 in /  1029.7 hPa Calm   1.0 mph /  1.6 km/h 93 % 0.00 in /  0 mm
04:31 49.7 °F /  9.8 °C 47.8 °F /  8.8 °C 30.41 in /  1029.7 hPa Calm   1.0 mph /  1.6 km/h 93 % 0.00 in /  0 mm
04:36 49.7 °F /  9.8 °C 47.8 °F /  8.8 °C 30.41 in /  1029.7 hPa Calm   1.0 mph /  1.6 km/h 93 % 0.00 in /  0 mm
04:41 49.7 °F /  9.8 °C 47.8 °F /  8.8 °C 30.41 in /  1029.7 hPa Calm   1.0 mph /  1.6 km/h 93 % 0.00 in /  0 mm
04:46 49.7 °F /  9.8 °C 47.8 °F /  8.8 °C 30.41 in /  1029.7 hPa Calm     93 % 0.00 in /  0 mm
04:51 49.6 °F /  9.8 °C 47.7 °F /  8.7 °C 30.42 in /  1030 hPa Calm     93 % 0.00 in /  0 mm
04:56 49.6 °F /  9.8 °C 47.7 °F /  8.7 °C 30.42 in /  1030 hPa Calm     93 % 0.00 in /  0 mm
05:01 49.5 °F /  9.7 °C 47.6 °F /  8.7 °C 30.41 in /  1029.7 hPa Calm     93 % 0.00 in /  0 mm
05:06 49.5 °F /  9.7 °C 47.6 °F /  8.7 °C 30.42 in /  1030 hPa Calm     93 % 0.00 in /  0 mm
05:11 49.4 °F /  9.7 °C 47.5 °F /  8.6 °C 30.42 in /  1030 hPa Calm     93 % 0.00 in /  0 mm
05:16 49.4 °F /  9.7 °C 47.5 °F /  8.6 °C 30.42 in /  1030 hPa Calm     93 % 0.00 in /  0 mm
05:21 49.4 °F /  9.7 °C 47.5 °F /  8.6 °C 30.42 in /  1030 hPa Calm     93 % 0.00 in /  0 mm
05:26 49.3 °F /  9.6 °C 47.4 °F /  8.6 °C 30.42 in /  1030 hPa Calm   1.2 mph /  1.9 km/h 93 % 0.00 in /  0 mm
05:31 49.3 °F /  9.6 °C 47.4 °F /  8.6 °C 30.42 in /  1030 hPa Calm   1.2 mph /  1.9 km/h 93 % 0.00 in /  0 mm
05:36 49.3 °F /  9.6 °C 47.4 °F /  8.6 °C 30.43 in /  1030.4 hPa Calm   1.2 mph /  1.9 km/h 93 % 0.00 in /  0 mm
05:41 49.3 °F /  9.6 °C 47.4 °F /  8.6 °C 30.43 in /  1030.4 hPa Calm     93 % 0.00 in /  0 mm
05:46 49.3 °F /  9.6 °C 47.4 °F /  8.6 °C 30.43 in /  1030.4 hPa Calm     93 % 0.00 in /  0 mm
05:51 49.3 °F /  9.6 °C 47.6 °F /  8.7 °C 30.43 in /  1030.4 hPa Calm     94 % 0.00 in /  0 mm
05:56 49.3 °F /  9.6 °C 47.6 °F /  8.7 °C 30.43 in /  1030.4 hPa Calm     94 % 0.00 in /  0 mm
06:01 49.3 °F /  9.6 °C 47.6 °F /  8.7 °C 30.43 in /  1030.4 hPa Calm     94 % 0.00 in /  0 mm
06:05 49.3 °F /  9.6 °C 47.6 °F /  8.7 °C 30.43 in /  1030.4 hPa Calm     94 % 0.00 in /  0 mm
06:10 49.3 °F /  9.6 °C 47.6 °F /  8.7 °C 30.43 in /  1030.4 hPa Calm     94 % 0.00 in /  0 mm
06:16 49.3 °F /  9.6 °C 47.6 °F /  8.7 °C 30.43 in /  1030.4 hPa Calm     94 % 0.00 in /  0 mm
06:21 49.4 °F /  9.7 °C 47.7 °F /  8.7 °C 30.44 in /  1030.7 hPa Calm     94 % 0.00 in /  0 mm
06:26 49.4 °F /  9.7 °C 47.7 °F /  8.7 °C 30.44 in /  1030.7 hPa Calm     94 % 0.00 in /  0 mm
06:31 49.4 °F /  9.7 °C 48.1 °F /  8.9 °C 30.44 in /  1030.7 hPa Calm     95 % 0.00 in /  0 mm
06:36 49.5 °F /  9.7 °C 48.1 °F /  8.9 °C 30.44 in /  1030.7 hPa Calm     95 % 0.00 in /  0 mm
06:41 49.6 °F /  9.8 °C 48.2 °F /  9 °C 30.45 in /  1031 hPa Calm     95 % 0.00 in /  0 mm
06:46 49.6 °F /  9.8 °C 48.2 °F /  9 °C 30.45 in /  1031 hPa Calm     95 % 0.00 in /  0 mm
06:51 49.7 °F /  9.8 °C 48.3 °F /  9.1 °C 30.45 in /  1031 hPa Calm     95 % 0.00 in /  0 mm
06:56 49.7 °F /  9.8 °C 48.3 °F /  9.1 °C 30.45 in /  1031 hPa Calm     95 % 0.00 in /  0 mm
07:01 49.7 °F /  9.8 °C 48.3 °F /  9.1 °C 30.45 in /  1031 hPa Calm     95 % 0.00 in /  0 mm
07:06 49.7 °F /  9.8 °C 48.3 °F /  9.1 °C 30.46 in /  1031.4 hPa Calm     95 % 0.00 in /  0 mm
07:11 49.7 °F /  9.8 °C 48.3 °F /  9.1 °C 30.46 in /  1031.4 hPa Calm     95 % 0.00 in /  0 mm
07:16 49.8 °F /  9.9 °C 48.4 °F /  9.1 °C 30.47 in /  1031.7 hPa Calm     95 % 0.00 in /  0 mm
07:21 49.9 °F /  9.9 °C 48.5 °F /  9.2 °C 30.47 in /  1031.7 hPa Calm     95 % 0.00 in /  0 mm
07:26 50.0 °F /  10 °C 48.6 °F /  9.2 °C 30.47 in /  1031.7 hPa Calm     95 % 0.00 in /  0 mm
07:31 50.0 °F /  10 °C 48.6 °F /  9.2 °C 30.47 in /  1031.7 hPa Calm     95 % 0.00 in /  0 mm
07:36 50.2 °F /  10.1 °C 49.1 °F /  9.5 °C 30.47 in /  1031.7 hPa Calm     96 % 0.00 in /  0 mm
07:41 50.4 °F /  10.2 °C 49.3 °F /  9.6 °C 30.47 in /  1031.7 hPa Calm     96 % 0.00 in /  0 mm
07:46 50.6 °F /  10.3 °C 49.5 °F /  9.7 °C 30.47 in /  1031.7 hPa Calm     96 % 0.00 in /  0 mm
07:51 50.8 °F /  10.4 °C 49.7 °F /  9.8 °C 30.48 in /  1032.1 hPa Calm   1.2 mph /  1.9 km/h 96 % 0.00 in /  0 mm
07:56 51.0 °F /  10.6 °C 49.9 °F /  9.9 °C 30.48 in /  1032.1 hPa SE 0.1 mph /  0.2 km/h 1.2 mph /  1.9 km/h 96 % 0.00 in /  0 mm
08:01 51.3 °F /  10.7 °C 50.2 °F /  10.1 °C 30.48 in /  1032.1 hPa Calm     96 % 0.00 in /  0 mm
08:06 51.7 °F /  10.9 °C 50.9 °F /  10.5 °C 30.48 in /  1032.1 hPa SE 0.2 mph /  0.3 km/h 2.3 mph /  3.7 km/h 97 % 0.00 in /  0 mm
08:11 52.2 °F /  11.2 °C 51.4 °F /  10.8 °C 30.48 in /  1032.1 hPa SE 0.2 mph /  0.3 km/h 1.2 mph /  1.9 km/h 97 % 0.00 in /  0 mm
08:16 52.9 °F /  11.6 °C 52.1 °F /  11.2 °C 30.48 in /  1032.1 hPa Calm     97 % 0.00 in /  0 mm
08:21 53.5 °F /  11.9 °C 52.7 °F /  11.5 °C 30.48 in /  1032.1 hPa Calm     97 % 0.00 in /  0 mm
08:26 54.1 °F /  12.3 °C 53.3 °F /  11.8 °C 30.48 in /  1032.1 hPa Calm   1.2 mph /  1.9 km/h 97 % 0.00 in /  0 mm
08:31 54.6 °F /  12.6 °C 53.8 °F /  12.1 °C 30.48 in /  1032.1 hPa Calm     97 % 0.00 in /  0 mm
08:36 55.1 °F /  12.8 °C 54.3 °F /  12.4 °C 30.48 in /  1032.1 hPa Calm     97 % 0.00 in /  0 mm
08:41 55.5 °F /  13.1 °C 54.7 °F /  12.6 °C 30.49 in /  1032.4 hPa SE 0.1 mph /  0.2 km/h 1.2 mph /  1.9 km/h 97 % 0.00 in /  0 mm
08:46 55.9 °F /  13.3 °C 55.3 °F /  12.9 °C 30.48 in /  1032.1 hPa Calm   1.2 mph /  1.9 km/h 98 % 0.00 in /  0 mm
08:51 56.2 °F /  13.4 °C 55.4 °F /  13 °C 30.49 in /  1032.4 hPa SE 1.2 mph /  1.9 km/h 1.2 mph /  1.9 km/h 97 % 0.00 in /  0 mm
08:56 56.5 °F /  13.6 °C 55.9 °F /  13.3 °C 30.49 in /  1032.4 hPa SE 0.2 mph /  0.3 km/h 2.3 mph /  3.7 km/h 98 % 0.00 in /  0 mm
09:01 56.8 °F /  13.8 °C 56.0 °F /  13.3 °C 30.49 in /  1032.4 hPa Calm   1.2 mph /  1.9 km/h 97 % 0.00 in /  0 mm
09:06 57.1 °F /  13.9 °C 56.5 °F /  13.6 °C 30.49 in /  1032.4 hPa SE 0.3 mph /  0.5 km/h   98 % 0.00 in /  0 mm
09:11 57.3 °F /  14.1 °C 56.5 °F /  13.6 °C 30.49 in /  1032.4 hPa SE 0.3 mph /  0.5 km/h 2.3 mph /  3.7 km/h 97 % 0.00 in /  0 mm
09:16 57.5 °F /  14.2 °C 56.7 °F /  13.7 °C 30.49 in /  1032.4 hPa SE 0.6 mph /  1 km/h 2.3 mph /  3.7 km/h 97 % 0.00 in /  0 mm
09:22 57.7 °F /  14.3 °C 57.1 °F /  13.9 °C 30.49 in /  1032.4 hPa SE 0.2 mph /  0.3 km/h 1.2 mph /  1.9 km/h 98 % 0.00 in /  0 mm
09:27 57.9 °F /  14.4 °C 57.1 °F /  13.9 °C 30.49 in /  1032.4 hPa ESE 0.3 mph /  0.5 km/h 1.2 mph /  1.9 km/h 97 % 0.00 in /  0 mm
09:32 58.2 °F /  14.6 °C 57.4 °F /  14.1 °C 30.49 in /  1032.4 hPa ESE 0.1 mph /  0.2 km/h 1.2 mph /  1.9 km/h 97 % 0.00 in /  0 mm
09:37 58.5 °F /  14.7 °C 57.7 °F /  14.3 °C 30.50 in /  1032.7 hPa ESE 0.2 mph /  0.3 km/h 1.2 mph /  1.9 km/h 97 % 0.00 in /  0 mm
09:42 58.8 °F /  14.9 °C 58.0 °F /  14.4 °C 30.49 in /  1032.4 hPa ESE 0.3 mph /  0.5 km/h 1.2 mph /  1.9 km/h 97 % 0.00 in /  0 mm
09:47 59.1 °F /  15.1 °C 58.0 °F /  14.4 °C 30.50 in /  1032.7 hPa SE 1.3 mph /  2.1 km/h 3.5 mph /  5.6 km/h 96 % 0.00 in /  0 mm
09:52 59.3 °F /  15.2 °C 57.6 °F /  14.2 °C 30.50 in /  1032.7 hPa Calm   1.2 mph /  1.9 km/h 94 % 0.00 in /  0 mm
09:57 59.8 °F /  15.4 °C 57.5 °F /  14.2 °C 30.50 in /  1032.7 hPa SE 0.6 mph /  1 km/h 3.5 mph /  5.6 km/h 92 % 0.00 in /  0 mm
10:07 61.0 °F /  16.1 °C 57.1 °F /  13.9 °C 30.50 in /  1032.7 hPa SE 0.2 mph /  0.3 km/h 3.5 mph /  5.6 km/h 87 % 0.00 in /  0 mm
10:12 61.4 °F /  16.3 °C 57.2 °F /  14 °C 30.50 in /  1032.7 hPa SE 0.5 mph /  0.8 km/h 3.5 mph /  5.6 km/h 86 % 0.00 in /  0 mm
10:17 61.8 °F /  16.6 °C 57.6 °F /  14.2 °C 30.50 in /  1032.7 hPa Calm   1.2 mph /  1.9 km/h 86 % 0.00 in /  0 mm
10:22 62.3 °F /  16.8 °C 57.7 °F /  14.3 °C 30.50 in /  1032.7 hPa Calm   1.0 mph /  1.6 km/h 85 % 0.00 in /  0 mm
10:27 62.8 °F /  17.1 °C 56.9 °F /  13.8 °C 30.50 in /  1032.7 hPa SSE 2.4 mph /  3.9 km/h 9.0 mph /  14.5 km/h 81 % 0.00 in /  0 mm
10:32 63.3 °F /  17.4 °C 56.3 °F /  13.5 °C 30.51 in /  1033.1 hPa SSE 0.7 mph /  1.1 km/h 4.0 mph /  6.4 km/h 78 % 0.00 in /  0 mm
10:37 63.7 °F /  17.6 °C 57.1 °F /  13.9 °C 30.50 in /  1032.7 hPa SE 0.7 mph /  1.1 km/h 3.5 mph /  5.6 km/h 79 % 0.00 in /  0 mm
10:42 64.1 °F /  17.8 °C 56.0 °F /  13.3 °C 30.50 in /  1032.7 hPa SE 1.2 mph /  1.9 km/h 5.8 mph /  9.3 km/h 75 % 0.00 in /  0 mm
10:47 64.3 °F /  17.9 °C 55.8 °F /  13.2 °C 30.51 in /  1033.1 hPa SE 0.4 mph /  0.6 km/h 2.0 mph /  3.2 km/h 74 % 0.00 in /  0 mm
10:52 64.4 °F /  18 °C 56.3 °F /  13.5 °C 30.51 in /  1033.1 hPa ENE 0.1 mph /  0.2 km/h 1.2 mph /  1.9 km/h 75 % 0.00 in /  0 mm
10:57 64.7 °F /  18.2 °C 56.6 °F /  13.7 °C 30.51 in /  1033.1 hPa NE 0.5 mph /  0.8 km/h 2.3 mph /  3.7 km/h 75 % 0.00 in /  0 mm
11:02 65.4 °F /  18.6 °C 56.9 °F /  13.8 °C 30.50 in /  1032.7 hPa East 0.6 mph /  1 km/h 2.3 mph /  3.7 km/h 74 % 0.00 in /  0 mm
11:07 65.7 °F /  18.7 °C 56.4 °F /  13.6 °C 30.51 in /  1033.1 hPa Calm   1.2 mph /  1.9 km/h 72 % 0.00 in /  0 mm
11:12 66.4 °F /  19.1 °C 58.2 °F /  14.6 °C 30.50 in /  1032.7 hPa SE 0.6 mph /  1 km/h 1.2 mph /  1.9 km/h 75 % 0.00 in /  0 mm
11:17 67.4 °F /  19.7 °C 58.4 °F /  14.7 °C 30.50 in /  1032.7 hPa Calm   1.2 mph /  1.9 km/h 73 % 0.00 in /  0 mm
11:22 68.0 °F /  20 °C 58.2 °F /  14.6 °C 30.50 in /  1032.7 hPa Calm     71 % 0.00 in /  0 mm
11:27 68.9 °F /  20.5 °C 59.1 °F /  15.1 °C 30.50 in /  1032.7 hPa NE 1.1 mph /  1.8 km/h 2.3 mph /  3.7 km/h 71 % 0.00 in /  0 mm
11:32 70.0 °F /  21.1 °C 59.0 °F /  15 °C 30.50 in /  1032.7 hPa ESE 0.6 mph /  1 km/h 2.3 mph /  3.7 km/h 68 % 0.00 in /  0 mm
11:38 71.0 °F /  21.7 °C 59.1 °F /  15.1 °C 30.50 in /  1032.7 hPa SE 0.2 mph /  0.3 km/h 1.2 mph /  1.9 km/h 66 % 0.00 in /  0 mm
11:43 72.3 °F /  22.4 °C 59.0 °F /  15 °C 30.50 in /  1032.7 hPa SE 0.4 mph /  0.6 km/h 2.3 mph /  3.7 km/h 63 % 0.00 in /  0 mm
11:48 73.0 °F /  22.8 °C 59.2 °F /  15.1 °C 30.49 in /  1032.4 hPa Calm   1.2 mph /  1.9 km/h 62 % 0.00 in /  0 mm
11:53 73.9 °F /  23.3 °C 58.7 °F /  14.8 °C 30.50 in /  1032.7 hPa East 1.2 mph /  1.9 km/h 3.5 mph /  5.6 km/h 59 % 0.00 in /  0 mm
11:58 74.0 °F /  23.3 °C 57.3 °F /  14.1 °C 30.49 in /  1032.4 hPa NE 1.0 mph /  1.6 km/h 5.8 mph /  9.3 km/h 56 % 0.00 in /  0 mm
12:03 73.2 °F /  22.9 °C 56.1 °F /  13.4 °C 30.49 in /  1032.4 hPa SE 2.3 mph /  3.7 km/h 3.5 mph /  5.6 km/h 55 % 0.00 in /  0 mm
12:08 73.0 °F /  22.8 °C 57.8 °F /  14.3 °C 30.49 in /  1032.4 hPa NE 0.1 mph /  0.2 km/h 2.3 mph /  3.7 km/h 59 % 0.00 in /  0 mm
12:13 73.5 °F /  23.1 °C 58.8 °F /  14.9 °C 30.49 in /  1032.4 hPa SE 0.8 mph /  1.3 km/h 3.5 mph /  5.6 km/h 60 % 0.00 in /  0 mm
12:18 74.2 °F /  23.4 °C 59.4 °F /  15.2 °C 30.49 in /  1032.4 hPa Calm   2.3 mph /  3.7 km/h 60 % 0.00 in /  0 mm
12:23 74.7 °F /  23.7 °C 58.9 °F /  14.9 °C 30.49 in /  1032.4 hPa NE 0.9 mph /  1.4 km/h 2.3 mph /  3.7 km/h 58 % 0.00 in /  0 mm
12:28 75.0 °F /  23.9 °C 58.2 °F /  14.6 °C 30.49 in /  1032.4 hPa NNE 1.5 mph /  2.4 km/h 2.3 mph /  3.7 km/h 56 % 0.00 in /  0 mm
12:33 74.6 °F /  23.7 °C 57.4 °F /  14.1 °C 30.49 in /  1032.4 hPa Calm   1.2 mph /  1.9 km/h 55 % 0.00 in /  0 mm
12:38 74.0 °F /  23.3 °C 57.3 °F /  14.1 °C 30.48 in /  1032.1 hPa NE 3.6 mph /  5.8 km/h 6.9 mph /  11.1 km/h 56 % 0.00 in /  0 mm
12:43 73.8 °F /  23.2 °C 55.6 °F /  13.1 °C 30.48 in /  1032.1 hPa SSE 1.2 mph /  1.9 km/h 6.9 mph /  11.1 km/h 53 % 0.00 in /  0 mm
12:48 73.9 °F /  23.3 °C 57.7 °F /  14.3 °C 30.48 in /  1032.1 hPa East 0.8 mph /  1.3 km/h 2.3 mph /  3.7 km/h 57 % 0.00 in /  0 mm
12:53 74.3 °F /  23.5 °C 58.1 °F /  14.5 °C 30.48 in /  1032.1 hPa Calm   1.2 mph /  1.9 km/h 57 % 0.00 in /  0 mm
12:58 74.8 °F /  23.8 °C 59.0 °F /  15 °C 30.49 in /  1032.4 hPa SE 0.3 mph /  0.5 km/h 3.5 mph /  5.6 km/h 58 % 0.00 in /  0 mm
13:03 74.8 °F /  23.8 °C 55.5 °F /  13.1 °C 30.48 in /  1032.1 hPa Calm   3.5 mph /  5.6 km/h 51 % 0.00 in /  0 mm
13:08 74.7 °F /  23.7 °C 54.8 °F /  12.7 °C 30.48 in /  1032.1 hPa SSE 0.9 mph /  1.4 km/h 3.5 mph /  5.6 km/h 50 % 0.00 in /  0 mm
13:13 74.5 °F /  23.6 °C 56.8 °F /  13.8 °C 30.49 in /  1032.4 hPa SSE 0.9 mph /  1.4 km/h 3.5 mph /  5.6 km/h 54 % 0.00 in /  0 mm
13:19 74.4 °F /  23.6 °C 55.6 °F /  13.1 °C 30.48 in /  1032.1 hPa SE 0.1 mph /  0.2 km/h 3.5 mph /  5.6 km/h 52 % 0.00 in /  0 mm
13:24 74.2 °F /  23.4 °C 58.5 °F /  14.7 °C 30.48 in /  1032.1 hPa East 0.3 mph /  0.5 km/h 2.3 mph /  3.7 km/h 58 % 0.00 in /  0 mm
13:29 73.9 °F /  23.3 °C 58.7 °F /  14.8 °C 30.48 in /  1032.1 hPa NE 2.8 mph /  4.5 km/h 2.8 mph /  4.5 km/h 59 % 0.00 in /  0 mm
13:34 73.1 °F /  22.8 °C 57.4 °F /  14.1 °C 30.48 in /  1032.1 hPa ENE 2.0 mph /  3.2 km/h 3.5 mph /  5.6 km/h 58 % 0.00 in /  0 mm
13:39 72.1 °F /  22.3 °C 57.0 °F /  13.9 °C 30.47 in /  1031.7 hPa NE 1.7 mph /  2.7 km/h 6.9 mph /  11.1 km/h 59 % 0.00 in /  0 mm
13:44 71.2 °F /  21.8 °C 57.1 °F /  13.9 °C 30.47 in /  1031.7 hPa ENE 1.5 mph /  2.4 km/h 3.5 mph /  5.6 km/h 61 % 0.00 in /  0 mm
13:54 69.7 °F /  20.9 °C 57.8 °F /  14.3 °C 30.47 in /  1031.7 hPa ENE 1.1 mph /  1.8 km/h 3.5 mph /  5.6 km/h 66 % 0.00 in /  0 mm
13:59 69.4 °F /  20.8 °C 57.5 °F /  14.2 °C 30.47 in /  1031.7 hPa ENE 0.9 mph /  1.4 km/h 3.5 mph /  5.6 km/h 66 % 0.00 in /  0 mm
14:04 69.1 °F /  20.6 °C 57.7 °F /  14.3 °C 30.46 in /  1031.4 hPa ENE 0.9 mph /  1.4 km/h 2.3 mph /  3.7 km/h 67 % 0.00 in /  0 mm
14:09 68.8 °F /  20.4 °C 57.8 °F /  14.3 °C 30.46 in /  1031.4 hPa ENE 1.4 mph /  2.3 km/h 2.3 mph /  3.7 km/h 68 % 0.00 in /  0 mm
14:14 68.5 °F /  20.3 °C 57.1 °F /  13.9 °C 30.46 in /  1031.4 hPa NE 1.4 mph /  2.3 km/h 3.5 mph /  5.6 km/h 67 % 0.00 in /  0 mm
14:19 68.4 °F /  20.2 °C 57.4 °F /  14.1 °C 30.46 in /  1031.4 hPa ENE 2.5 mph /  4 km/h 5.0 mph /  8 km/h 68 % 0.00 in /  0 mm
14:24 68.1 °F /  20.1 °C 57.9 °F /  14.4 °C 30.46 in /  1031.4 hPa East 1.1 mph /  1.8 km/h 2.3 mph /  3.7 km/h 70 % 0.00 in /  0 mm
14:29 67.9 °F /  19.9 °C 57.4 °F /  14.1 °C 30.46 in /  1031.4 hPa NE 0.8 mph /  1.3 km/h 2.3 mph /  3.7 km/h 69 % 0.00 in /  0 mm
14:34 67.6 °F /  19.8 °C 57.5 °F /  14.2 °C 30.46 in /  1031.4 hPa ENE 0.6 mph /  1 km/h 2.3 mph /  3.7 km/h 70 % 0.00 in /  0 mm
14:39 67.5 °F /  19.7 °C 57.8 °F /  14.3 °C 30.46 in /  1031.4 hPa ENE 0.7 mph /  1.1 km/h 2.3 mph /  3.7 km/h 71 % 0.00 in /  0 mm
14:41 67.5 °F /  19.7 °C 57.8 °F /  14.3 °C 30.45 in /  1031 hPa ENE 1.4 mph /  2.3 km/h 2.3 mph /  3.7 km/h 71 % 0.00 in /  0 mm
14:46 67.9 °F /  19.9 °C 58.1 °F /  14.5 °C 30.45 in /  1031 hPa ENE 0.8 mph /  1.3 km/h 2.3 mph /  3.7 km/h 71 % 0.00 in /  0 mm
14:51 68.4 °F /  20.2 °C 57.8 °F /  14.3 °C 30.45 in /  1031 hPa ENE 1.6 mph /  2.6 km/h 3.5 mph /  5.6 km/h 69 % 0.00 in /  0 mm
14:56 68.8 °F /  20.4 °C 58.2 °F /  14.6 °C 30.45 in /  1031 hPa ENE 1.6 mph /  2.6 km/h 3.5 mph /  5.6 km/h 69 % 0.00 in /  0 mm
15:02 68.7 °F /  20.4 °C 57.7 °F /  14.3 °C 30.45 in /  1031 hPa ENE 2.2 mph /  3.5 km/h 3.5 mph /  5.6 km/h 68 % 0.00 in /  0 mm
15:07 68.5 °F /  20.3 °C 57.5 °F /  14.2 °C 30.45 in /  1031 hPa ENE 2.1 mph /  3.4 km/h 3.5 mph /  5.6 km/h 68 % 0.00 in /  0 mm
15:12 68.5 °F /  20.3 °C 58.3 °F /  14.6 °C 30.44 in /  1030.7 hPa ENE 0.3 mph /  0.5 km/h 3.5 mph /  5.6 km/h 70 % 0.00 in /  0 mm
15:17 68.5 °F /  20.3 °C 57.9 °F /  14.4 °C 30.44 in /  1030.7 hPa ENE 1.1 mph /  1.8 km/h 2.3 mph /  3.7 km/h 69 % 0.00 in /  0 mm
15:22 68.2 °F /  20.1 °C 57.6 °F /  14.2 °C 30.44 in /  1030.7 hPa ENE 1.4 mph /  2.3 km/h 2.3 mph /  3.7 km/h 69 % 0.00 in /  0 mm
15:27 67.9 °F /  19.9 °C 57.8 °F /  14.3 °C 30.44 in /  1030.7 hPa ENE 0.2 mph /  0.3 km/h 1.2 mph /  1.9 km/h 70 % 0.00 in /  0 mm
15:32 67.6 °F /  19.8 °C 57.5 °F /  14.2 °C 30.44 in /  1030.7 hPa NE 1.6 mph /  2.6 km/h 3.0 mph /  4.8 km/h 70 % 0.00 in /  0 mm
15:37 67.4 °F /  19.7 °C 57.3 °F /  14.1 °C 30.44 in /  1030.7 hPa NE 1.2 mph /  1.9 km/h 3.5 mph /  5.6 km/h 70 % 0.00 in /  0 mm
15:42 67.3 °F /  19.6 °C 57.6 °F /  14.2 °C 30.43 in /  1030.4 hPa ENE 3.2 mph /  5.1 km/h 4.6 mph /  7.4 km/h 71 % 0.00 in /  0 mm
15:47 67.2 °F /  19.6 °C 57.1 °F /  13.9 °C 30.43 in /  1030.4 hPa ENE 3.4 mph /  5.5 km/h 4.6 mph /  7.4 km/h 70 % 0.00 in /  0 mm
15:52 67.3 °F /  19.6 °C 55.1 °F /  12.8 °C 30.44 in /  1030.7 hPa SSE 2.6 mph /  4.2 km/h 6.9 mph /  11.1 km/h 65 % 0.00 in /  0 mm
15:57 67.2 °F /  19.6 °C 51.9 °F /  11.1 °C 30.44 in /  1030.7 hPa SE 4.8 mph /  7.7 km/h 9.2 mph /  14.8 km/h 58 % 0.00 in /  0 mm
16:02 67.2 °F /  19.6 °C 51.9 °F /  11.1 °C 30.44 in /  1030.7 hPa SE 3.1 mph /  5 km/h 4.6 mph /  7.4 km/h 58 % 0.00 in /  0 mm
16:07 67.1 °F /  19.5 °C 51.4 °F /  10.8 °C 30.43 in /  1030.4 hPa SE 2.4 mph /  3.9 km/h 6.9 mph /  11.1 km/h 57 % 0.00 in /  0 mm
16:12 67.0 °F /  19.4 °C 51.7 °F /  10.9 °C 30.43 in /  1030.4 hPa SE 2.1 mph /  3.4 km/h 5.8 mph /  9.3 km/h 58 % 0.00 in /  0 mm
16:17 66.9 °F /  19.4 °C 51.2 °F /  10.7 °C 30.43 in /  1030.4 hPa SE 3.5 mph /  5.6 km/h 7.0 mph /  11.3 km/h 57 % 0.00 in /  0 mm
16:22 66.8 °F /  19.3 °C 51.5 °F /  10.8 °C 30.43 in /  1030.4 hPa ESE 1.8 mph /  2.9 km/h 3.5 mph /  5.6 km/h 58 % 0.00 in /  0 mm
16:27 66.7 °F /  19.3 °C 51.0 °F /  10.6 °C 30.43 in /  1030.4 hPa ESE 2.5 mph /  4 km/h 3.0 mph /  4.8 km/h 57 % 0.00 in /  0 mm
16:32 66.5 °F /  19.2 °C 50.8 °F /  10.4 °C 30.43 in /  1030.4 hPa SE 4.7 mph /  7.6 km/h 7.0 mph /  11.3 km/h 57 % 0.00 in /  0 mm
16:37 66.3 °F /  19.1 °C 51.1 °F /  10.6 °C 30.43 in /  1030.4 hPa SE 1.3 mph /  2.1 km/h 4.0 mph /  6.4 km/h 58 % 0.00 in /  0 mm
16:42 66.2 °F /  19 °C 50.0 °F /  10 °C 30.43 in /  1030.4 hPa SE 1.0 mph /  1.6 km/h 3.5 mph /  5.6 km/h 56 % 0.00 in /  0 mm
16:48 66.0 °F /  18.9 °C 49.8 °F /  9.9 °C 30.43 in /  1030.4 hPa SE 1.8 mph /  2.9 km/h 5.8 mph /  9.3 km/h 56 % 0.00 in /  0 mm
16:53 65.8 °F /  18.8 °C 50.1 °F /  10.1 °C 30.43 in /  1030.4 hPa SSE 3.6 mph /  5.8 km/h 7.0 mph /  11.3 km/h 57 % 0.00 in /  0 mm
16:58 65.6 °F /  18.7 °C 50.0 °F /  10 °C 30.43 in /  1030.4 hPa SE 1.0 mph /  1.6 km/h 3.5 mph /  5.6 km/h 57 % 0.00 in /  0 mm
17:03 65.4 °F /  18.6 °C 49.8 °F /  9.9 °C 30.43 in /  1030.4 hPa SSE 2.0 mph /  3.2 km/h 6.9 mph /  11.1 km/h 57 % 0.00 in /  0 mm
17:08 65.3 °F /  18.5 °C 50.1 °F /  10.1 °C 30.43 in /  1030.4 hPa SE 2.0 mph /  3.2 km/h 6.9 mph /  11.1 km/h 58 % 0.00 in /  0 mm
17:13 65.2 °F /  18.4 °C 49.1 °F /  9.5 °C 30.43 in /  1030.4 hPa SE 2.7 mph /  4.3 km/h 8.1 mph /  13 km/h 56 % 0.00 in /  0 mm
17:16 65.0 °F /  18.3 °C 48.4 °F /  9.1 °C 30.43 in /  1030.4 hPa SE 3.1 mph /  5 km/h 5.8 mph /  9.3 km/h 55 % 0.00 in /  0 mm
17:21 64.8 °F /  18.2 °C 48.7 °F /  9.3 °C 30.43 in /  1030.4 hPa SE 1.8 mph /  2.9 km/h 5.0 mph /  8 km/h 56 % 0.00 in /  0 mm
17:26 64.6 °F /  18.1 °C 48.5 °F /  9.2 °C 30.43 in /  1030.4 hPa SE 2.3 mph /  3.7 km/h 8.1 mph /  13 km/h 56 % 0.00 in /  0 mm
17:31 64.4 °F /  18 °C 48.4 °F /  9.1 °C 30.43 in /  1030.4 hPa ESE 3.3 mph /  5.3 km/h 6.9 mph /  11.1 km/h 56 % 0.00 in /  0 mm
17:36 64.3 °F /  17.9 °C 47.8 °F /  8.8 °C 30.43 in /  1030.4 hPa SSE 3.7 mph /  6 km/h 5.8 mph /  9.3 km/h 55 % 0.00 in /  0 mm
17:41 64.1 °F /  17.8 °C 47.6 °F /  8.7 °C 30.43 in /  1030.4 hPa SE 1.2 mph /  1.9 km/h 3.5 mph /  5.6 km/h 55 % 0.00 in /  0 mm
17:46 63.9 °F /  17.7 °C 48.4 °F /  9.1 °C 30.43 in /  1030.4 hPa SE 3.1 mph /  5 km/h 4.6 mph /  7.4 km/h 57 % 0.00 in /  0 mm
17:51 63.8 °F /  17.7 °C 48.7 °F /  9.3 °C 30.43 in /  1030.4 hPa South 2.1 mph /  3.4 km/h 3.5 mph /  5.6 km/h 58 % 0.00 in /  0 mm
17:57 63.6 °F /  17.6 °C 49.0 °F /  9.4 °C 30.44 in /  1030.7 hPa SE 2.4 mph /  3.9 km/h 4.6 mph /  7.4 km/h 59 % 0.00 in /  0 mm
18:02 63.5 °F /  17.5 °C 49.8 °F /  9.9 °C 30.44 in /  1030.7 hPa SE 1.5 mph /  2.4 km/h 4.0 mph /  6.4 km/h 61 % 0.00 in /  0 mm
18:07 63.3 °F /  17.4 °C 49.6 °F /  9.8 °C 30.44 in /  1030.7 hPa Calm   1.2 mph /  1.9 km/h 61 % 0.00 in /  0 mm
18:12 63.2 °F /  17.3 °C 50.4 °F /  10.2 °C 30.44 in /  1030.7 hPa SE 0.7 mph /  1.1 km/h 2.0 mph /  3.2 km/h 63 % 0.00 in /  0 mm
18:17 63.0 °F /  17.2 °C 50.2 °F /  10.1 °C 30.44 in /  1030.7 hPa SE 0.3 mph /  0.5 km/h 2.3 mph /  3.7 km/h 63 % 0.00 in /  0 mm
18:22 62.7 °F /  17.1 °C 50.3 °F /  10.2 °C 30.44 in /  1030.7 hPa SE 0.7 mph /  1.1 km/h 2.0 mph /  3.2 km/h 64 % 0.00 in /  0 mm
18:27 62.4 °F /  16.9 °C 50.5 °F /  10.3 °C 30.44 in /  1030.7 hPa Calm     65 % 0.00 in /  0 mm
18:32 62.2 °F /  16.8 °C 50.7 °F /  10.4 °C 30.44 in /  1030.7 hPa Calm     66 % 0.00 in /  0 mm
18:37 61.9 °F /  16.6 °C 50.8 °F /  10.4 °C 30.44 in /  1030.7 hPa Calm     67 % 0.00 in /  0 mm
18:42 61.6 °F /  16.4 °C 50.5 °F /  10.3 °C 30.45 in /  1031 hPa Calm     67 % 0.00 in /  0 mm
18:47 61.3 °F /  16.3 °C 50.6 °F /  10.3 °C 30.45 in /  1031 hPa Calm     68 % 0.00 in /  0 mm
18:52 60.9 °F /  16.1 °C 50.3 °F /  10.2 °C 30.44 in /  1030.7 hPa Calm     68 % 0.00 in /  0 mm
18:57 60.5 °F /  15.8 °C 50.7 °F /  10.4 °C 30.44 in /  1030.7 hPa Calm     70 % 0.00 in /  0 mm
19:02 60.0 °F /  15.6 °C 50.2 °F /  10.1 °C 30.44 in /  1030.7 hPa Calm     70 % 0.00 in /  0 mm
19:07 59.6 °F /  15.3 °C 50.2 °F /  10.1 °C 30.44 in /  1030.7 hPa Calm     71 % 0.00 in /  0 mm
19:12 59.3 °F /  15.2 °C 50.3 °F /  10.2 °C 30.45 in /  1031 hPa SE 0.4 mph /  0.6 km/h 1.0 mph /  1.6 km/h 72 % 0.00 in /  0 mm
19:17 58.9 °F /  14.9 °C 50.3 °F /  10.2 °C 30.45 in /  1031 hPa SE 0.7 mph /  1.1 km/h 1.2 mph /  1.9 km/h 73 % 0.00 in /  0 mm
19:22 58.7 °F /  14.8 °C 50.1 °F /  10.1 °C 30.45 in /  1031 hPa SE 0.2 mph /  0.3 km/h 1.2 mph /  1.9 km/h 73 % 0.00 in /  0 mm
19:27 58.4 °F /  14.7 °C 50.1 °F /  10.1 °C 30.44 in /  1030.7 hPa Calm     74 % 0.00 in /  0 mm
19:32 58.2 °F /  14.6 °C 50.0 °F /  10 °C 30.44 in /  1030.7 hPa Calm   1.2 mph /  1.9 km/h 74 % 0.00 in /  0 mm
19:37 58.0 °F /  14.4 °C 50.1 °F /  10.1 °C 30.44 in /  1030.7 hPa Calm     75 % 0.00 in /  0 mm
19:42 57.7 °F /  14.3 °C 49.8 °F /  9.9 °C 30.44 in /  1030.7 hPa Calm     75 % 0.00 in /  0 mm
19:47 57.6 °F /  14.2 °C 50.1 °F /  10.1 °C 30.44 in /  1030.7 hPa SE 0.3 mph /  0.5 km/h 2.3 mph /  3.7 km/h 76 % 0.00 in /  0 mm
19:52 57.4 °F /  14.1 °C 49.9 °F /  9.9 °C 30.44 in /  1030.7 hPa SE 0.1 mph /  0.2 km/h 1.2 mph /  1.9 km/h 76 % 0.00 in /  0 mm
20:02 57.0 °F /  13.9 °C 49.9 °F /  9.9 °C 30.43 in /  1030.4 hPa SE 0.3 mph /  0.5 km/h 2.0 mph /  3.2 km/h 77 % 0.00 in /  0 mm
20:08 56.9 °F /  13.8 °C 49.8 °F /  9.9 °C 30.44 in /  1030.7 hPa Calm     77 % 0.00 in /  0 mm
20:13 56.8 °F /  13.8 °C 49.7 °F /  9.8 °C 30.43 in /  1030.4 hPa Calm     77 % 0.00 in /  0 mm
20:18 56.7 °F /  13.7 °C 49.9 °F /  9.9 °C 30.43 in /  1030.4 hPa Calm     78 % 0.00 in /  0 mm
20:23 56.5 °F /  13.6 °C 50.1 °F /  10.1 °C 30.43 in /  1030.4 hPa Calm     79 % 0.00 in /  0 mm
20:28 56.3 °F /  13.5 °C 49.9 °F /  9.9 °C 30.43 in /  1030.4 hPa Calm     79 % 0.00 in /  0 mm
20:33 56.0 °F /  13.3 °C 49.6 °F /  9.8 °C 30.43 in /  1030.4 hPa Calm     79 % 0.00 in /  0 mm
20:38 55.8 °F /  13.2 °C 49.4 °F /  9.7 °C 30.43 in /  1030.4 hPa Calm     79 % 0.00 in /  0 mm
20:43 55.5 °F /  13.1 °C 49.4 °F /  9.7 °C 30.43 in /  1030.4 hPa Calm     80 % 0.00 in /  0 mm
20:48 55.3 °F /  12.9 °C 49.2 °F /  9.6 °C 30.43 in /  1030.4 hPa Calm     80 % 0.00 in /  0 mm
20:53 55.1 °F /  12.8 °C 49.0 °F /  9.4 °C 30.43 in /  1030.4 hPa Calm     80 % 0.00 in /  0 mm
20:58 54.8 °F /  12.7 °C 49.1 °F /  9.5 °C 30.42 in /  1030 hPa Calm     81 % 0.00 in /  0 mm
21:03 54.5 °F /  12.5 °C 48.8 °F /  9.3 °C 30.43 in /  1030.4 hPa Calm     81 % 0.00 in /  0 mm
21:08 54.3 °F /  12.4 °C 48.9 °F /  9.4 °C 30.42 in /  1030 hPa Calm     82 % 0.00 in /  0 mm
21:14 54.0 °F /  12.2 °C 48.6 °F /  9.2 °C 30.42 in /  1030 hPa Calm     82 % 0.00 in /  0 mm
21:19 53.8 °F /  12.1 °C 48.4 °F /  9.1 °C 30.42 in /  1030 hPa Calm     82 % 0.00 in /  0 mm
21:24 53.6 °F /  12 °C 48.6 °F /  9.2 °C 30.42 in /  1030 hPa Calm     83 % 0.00 in /  0 mm
21:29 53.3 °F /  11.8 °C 48.3 °F /  9.1 °C 30.42 in /  1030 hPa Calm     83 % 0.00 in /  0 mm
21:34 53.1 °F /  11.7 °C 48.4 °F /  9.1 °C 30.42 in /  1030 hPa Calm     84 % 0.00 in /  0 mm
21:44 52.7 °F /  11.5 °C 48.0 °F /  8.9 °C 30.43 in /  1030.4 hPa Calm     84 % 0.00 in /  0 mm
21:49 52.5 °F /  11.4 °C 47.8 °F /  8.8 °C 30.42 in /  1030 hPa Calm     84 % 0.00 in /  0 mm
21:54 52.4 °F /  11.3 °C 48.0 °F /  8.9 °C 30.42 in /  1030 hPa Calm     85 % 0.00 in /  0 mm
21:59 52.2 °F /  11.2 °C 47.5 °F /  8.6 °C 30.42 in /  1030 hPa Calm     84 % 0.00 in /  0 mm
22:04 52.0 °F /  11.1 °C 47.6 °F /  8.7 °C 30.42 in /  1030 hPa Calm     85 % 0.00 in /  0 mm
22:09 51.9 °F /  11.1 °C 47.5 °F /  8.6 °C 30.42 in /  1030 hPa Calm     85 % 0.00 in /  0 mm
22:14 51.7 °F /  10.9 °C 47.6 °F /  8.7 °C 30.53 in /  1033.7 hPa Calm     86 % 0.00 in /  0 mm
22:19 51.6 °F /  10.9 °C 47.5 °F /  8.6 °C 30.53 in /  1033.7 hPa Calm     86 % 0.00 in /  0 mm
22:24 51.4 °F /  10.8 °C 47.4 °F /  8.6 °C 30.53 in /  1033.7 hPa Calm     86 % 0.00 in /  0 mm
22:29 51.3 °F /  10.7 °C 47.3 °F /  8.5 °C 30.53 in /  1033.7 hPa Calm     86 % 0.00 in /  0 mm
22:34 51.1 °F /  10.6 °C 47.1 °F /  8.4 °C 30.53 in /  1033.7 hPa Calm     86 % 0.00 in /  0 mm
22:39 51.0 °F /  10.6 °C 47.0 °F /  8.3 °C 30.53 in /  1033.7 hPa Calm     86 % 0.00 in /  0 mm
22:44 50.8 °F /  10.4 °C 46.8 °F /  8.2 °C 30.53 in /  1033.7 hPa Calm     86 % 0.00 in /  0 mm
22:46 50.8 °F /  10.4 °C 46.8 °F /  8.2 °C 30.53 in /  1033.7 hPa Calm     86 % 0.00 in /  0 mm
22:51 50.7 °F /  10.4 °C 47.0 °F /  8.3 °C 30.53 in /  1033.7 hPa Calm     87 % 0.00 in /  0 mm
22:56 50.5 °F /  10.3 °C 46.8 °F /  8.2 °C 30.53 in /  1033.7 hPa Calm     87 % 0.00 in /  0 mm
23:01 50.4 °F /  10.2 °C 46.7 °F /  8.2 °C 30.52 in /  1033.4 hPa Calm     87 % 0.00 in /  0 mm
23:06 50.3 °F /  10.2 °C 46.6 °F /  8.1 °C 30.52 in /  1033.4 hPa Calm     87 % 0.00 in /  0 mm
23:11 50.2 °F /  10.1 °C 46.5 °F /  8.1 °C 30.52 in /  1033.4 hPa Calm     87 % 0.00 in /  0 mm
23:17 50.1 °F /  10.1 °C 46.4 °F /  8 °C 30.52 in /  1033.4 hPa Calm     87 % 0.00 in /  0 mm
23:22 50.0 °F /  10 °C 46.6 °F /  8.1 °C 30.40 in /  1029.3 hPa Calm     88 % 0.00 in /  0 mm
23:27 50.0 °F /  10 °C 46.6 °F /  8.1 °C 30.52 in /  1033.4 hPa Calm     88 % 0.00 in /  0 mm
23:32 49.9 °F /  9.9 °C 46.5 °F /  8.1 °C 30.52 in /  1033.4 hPa Calm     88 % 0.00 in /  0 mm
23:37 49.8 °F /  9.9 °C 46.7 °F /  8.2 °C 30.52 in /  1033.4 hPa Calm     89 % 0.00 in /  0 mm
23:42 49.9 °F /  9.9 °C 47.1 °F /  8.4 °C 30.52 in /  1033.4 hPa Calm     90 % 0.00 in /  0 mm
23:47 49.9 °F /  9.9 °C 47.1 °F /  8.4 °C 30.52 in /  1033.4 hPa Calm     90 % 0.00 in /  0 mm
23:52 49.9 °F /  9.9 °C 47.4 °F /  8.6 °C 30.52 in /  1033.4 hPa Calm     91 % 0.00 in /  0 mm
23:57 50.1 °F /  10.1 °C 47.9 °F /  8.8 °C 30.52 in /  1033.4 hPa Calm     92 % 0.00 in /  0 mm
Crab Meadow Weather
Compliments of Weather Underground - 3 mb

Script developed by  Jim McMurry - jmcmurry@mwt.net Adapted for the template by  Wim van der Kuil - Leuven-Template.eu

Weather Terms: Wind Chill - An apparent temperature that describes the combined effect of wind and low temperature on exposed skin.